Terminal Aerodrome Forecast
Issued by NWS

Current Version | Previous Version | Text Only | Print | Product List | Glossary On
Versions: 1 2 3 4 5 6 7 8 9 10 11 12 13 14 15 16 17
000 FTUS41 KGYX 050520 TAFPSM TAF KPSM 050520Z 0506/0606 VRB03KT 4SM BR SKC FM051000 27004KT P6SM SKC FM051600 23009KT P6SM SCT050=

USA.gov is the U.S. government's official web portal to all federal, state and local government web resources and services.